sensor_id;sensor_type;location;lat;lon;timestamp;P1;durP1;ratioP1;P2;durP2;ratioP2
72037;SDS011;59900;50.788;12.904;2022-12-18T00:00:33;24.60;;;10.43;;
72037;SDS011;59900;50.788;12.904;2022-12-18T00:02:58;25.73;;;10.73;;
72037;SDS011;59900;50.788;12.904;2022-12-18T00:05:23;21.77;;;10.20;;
72037;SDS011;59900;50.788;12.904;2022-12-18T00:07:49;22.57;;;9.33;;
72037;SDS011;59900;50.788;12.904;2022-12-18T00:10:14;20.93;;;9.80;;
72037;SDS011;59900;50.788;12.904;2022-12-18T00:12:39;20.40;;;9.57;;
72037;SDS011;59900;50.788;12.904;2022-12-18T00:15:05;20.23;;;10.07;;
72037;SDS011;59900;50.788;12.904;2022-12-18T00:17:30;23.55;;;9.57;;
72037;SDS011;59900;50.788;12.904;2022-12-18T00:19:55;18.52;;;9.63;;
72037;SDS011;59900;50.788;12.904;2022-12-18T00:22:21;20.43;;;9.30;;
72037;SDS011;59900;50.788;12.904;2022-12-18T00:24:46;20.00;;;9.47;;
72037;SDS011;59900;50.788;12.904;2022-12-18T00:27:11;15.17;;;8.23;;
72037;SDS011;59900;50.788;12.904;2022-12-18T00:29:39;21.40;;;8.57;;
72037;SDS011;59900;50.788;12.904;2022-12-18T00:32:05;20.83;;;9.33;;
72037;SDS011;59900;50.788;12.904;2022-12-18T00:34:30;16.53;;;7.37;;
72037;SDS011;59900;50.788;12.904;2022-12-18T00:36:55;22.45;;;8.35;;
72037;SDS011;59900;50.788;12.904;2022-12-18T00:39:20;17.10;;;7.60;;
72037;SDS011;59900;50.788;12.904;2022-12-18T00:41:46;18.23;;;7.17;;
72037;SDS011;59900;50.788;12.904;2022-12-18T00:44:30;18.73;;;8.23;;
72037;SDS011;59900;50.788;12.904;2022-12-18T00:46:55;19.63;;;7.93;;
72037;SDS011;59900;50.788;12.904;2022-12-18T00:49:20;20.88;;;9.80;;
72037;SDS011;59900;50.788;12.904;2022-12-18T00:51:45;16.90;;;8.90;;
72037;SDS011;59900;50.788;12.904;2022-12-18T00:54:11;16.67;;;8.30;;
72037;SDS011;59900;50.788;12.904;2022-12-18T00:56:37;17.57;;;9.00;;
72037;SDS011;59900;50.788;12.904;2022-12-18T00:59:03;19.58;;;8.85;;
72037;SDS011;59900;50.788;12.904;2022-12-18T01:01:29;20.42;;;9.63;;
72037;SDS011;59900;50.788;12.904;2022-12-18T01:03:55;18.60;;;8.00;;
72037;SDS011;59900;50.788;12.904;2022-12-18T01:06:21;18.70;;;8.73;;
72037;SDS011;59900;50.788;12.904;2022-12-18T01:08:46;17.53;;;7.70;;
72037;SDS011;59900;50.788;12.904;2022-12-18T01:11:13;17.80;;;9.00;;
72037;SDS011;59900;50.788;12.904;2022-12-18T01:13:40;21.05;;;8.48;;
72037;SDS011;59900;50.788;12.904;2022-12-18T01:16:05;18.50;;;9.87;;
72037;SDS011;59900;50.788;12.904;2022-12-18T01:18:31;19.92;;;9.00;;
72037;SDS011;59900;50.788;12.904;2022-12-18T01:20:56;16.40;;;7.97;;
72037;SDS011;59900;50.788;12.904;2022-12-18T01:23:22;21.17;;;8.97;;
72037;SDS011;59900;50.788;12.904;2022-12-18T01:25:47;17.90;;;8.57;;
72037;SDS011;59900;50.788;12.904;2022-12-18T01:28:12;21.37;;;8.90;;
72037;SDS011;59900;50.788;12.904;2022-12-18T01:30:37;15.47;;;8.27;;
72037;SDS011;59900;50.788;12.904;2022-12-18T01:33:06;16.60;;;8.47;;
72037;SDS011;59900;50.788;12.904;2022-12-18T01:35:31;16.98;;;8.07;;
72037;SDS011;59900;50.788;12.904;2022-12-18T01:37:56;15.70;;;8.55;;
72037;SDS011;59900;50.788;12.904;2022-12-18T01:40:22;17.65;;;8.50;;
72037;SDS011;59900;50.788;12.904;2022-12-18T01:42:51;15.40;;;7.57;;
72037;SDS011;59900;50.788;12.904;2022-12-18T01:47:49;15.30;;;7.53;;
72037;SDS011;59900;50.788;12.904;2022-12-18T01:53:00;12.03;;;7.00;;
72037;SDS011;59900;50.788;12.904;2022-12-18T01:55:31;12.32;;;5.65;;
72037;SDS011;59900;50.788;12.904;2022-12-18T01:58:01;10.70;;;5.85;;
72037;SDS011;59900;50.788;12.904;2022-12-18T02:00:26;14.77;;;5.97;;
72037;SDS011;59900;50.788;12.904;2022-12-18T02:02:53;14.30;;;6.43;;
72037;SDS011;59900;50.788;12.904;2022-12-18T02:05:21;14.77;;;5.87;;
72037;SDS011;59900;50.788;12.904;2022-12-18T02:11:05;12.65;;;6.60;;
72037;SDS011;59900;50.788;12.904;2022-12-18T02:13:56;13.02;;;6.07;;
72037;SDS011;59900;50.788;12.904;2022-12-18T02:16:49;14.13;;;5.90;;
72037;SDS011;59900;50.788;12.904;2022-12-18T02:19:21;15.80;;;7.40;;
72037;SDS011;59900;50.788;12.904;2022-12-18T02:22:16;12.57;;;6.35;;
72037;SDS011;59900;50.788;12.904;2022-12-18T02:24:58;12.50;;;6.15;;
72037;SDS011;59900;50.788;12.904;2022-12-18T02:27:31;11.55;;;6.20;;
72037;SDS011;59900;50.788;12.904;2022-12-18T02:29:59;15.80;;;7.82;;
72037;SDS011;59900;50.788;12.904;2022-12-18T02:32:30;12.20;;;5.97;;
72037;SDS011;59900;50.788;12.904;2022-12-18T02:34:59;13.57;;;6.35;;
72037;SDS011;59900;50.788;12.904;2022-12-18T02:37:27;12.75;;;6.30;;
72037;SDS011;59900;50.788;12.904;2022-12-18T02:39:54;16.02;;;6.72;;
72037;SDS011;59900;50.788;12.904;2022-12-18T02:42:21;14.77;;;5.85;;
72037;SDS011;59900;50.788;12.904;2022-12-18T02:44:48;13.13;;;6.57;;
72037;SDS011;59900;50.788;12.904;2022-12-18T02:47:16;14.93;;;6.05;;
72037;SDS011;59900;50.788;12.904;2022-12-18T02:57:37;13.83;;;6.20;;
72037;SDS011;59900;50.788;12.904;2022-12-18T03:00:19;10.73;;;5.07;;
72037;SDS011;59900;50.788;12.904;2022-12-18T03:02:55;10.05;;;5.88;;
72037;SDS011;59900;50.788;12.904;2022-12-18T03:05:32;17.23;;;7.03;;
72037;SDS011;59900;50.788;12.904;2022-12-18T03:08:03;13.13;;;6.63;;
72037;SDS011;59900;50.788;12.904;2022-12-18T03:10:36;9.70;;;5.50;;
72037;SDS011;59900;50.788;12.904;2022-12-18T03:13:08;13.30;;;6.75;;
72037;SDS011;59900;50.788;12.904;2022-12-18T03:15:40;13.05;;;6.35;;
72037;SDS011;59900;50.788;12.904;2022-12-18T03:18:12;14.85;;;7.05;;
72037;SDS011;59900;50.788;12.904;2022-12-18T03:20:45;14.63;;;5.78;;
72037;SDS011;59900;50.788;12.904;2022-12-18T03:23:17;11.13;;;5.95;;
72037;SDS011;59900;50.788;12.904;2022-12-18T03:25:46;23.75;;;6.57;;
72037;SDS011;59900;50.788;12.904;2022-12-18T03:28:15;11.50;;;6.05;;
72037;SDS011;59900;50.788;12.904;2022-12-18T03:30:44;13.55;;;6.70;;
72037;SDS011;59900;50.788;12.904;2022-12-18T03:33:15;10.43;;;5.25;;
72037;SDS011;59900;50.788;12.904;2022-12-18T03:35:46;12.18;;;6.25;;
72037;SDS011;59900;50.788;12.904;2022-12-18T03:38:11;15.93;;;6.28;;
72037;SDS011;59900;50.788;12.904;2022-12-18T03:43:20;10.35;;;5.20;;
72037;SDS011;59900;50.788;12.904;2022-12-18T03:46:02;12.90;;;6.03;;
72037;SDS011;59900;50.788;12.904;2022-12-18T03:48:33;14.15;;;6.68;;
72037;SDS011;59900;50.788;12.904;2022-12-18T03:51:10;11.95;;;6.25;;
72037;SDS011;59900;50.788;12.904;2022-12-18T03:53:56;13.00;;;6.53;;
72037;SDS011;59900;50.788;12.904;2022-12-18T03:56:26;11.65;;;5.47;;
72037;SDS011;59900;50.788;12.904;2022-12-18T03:58:54;11.98;;;5.85;;
72037;SDS011;59900;50.788;12.904;2022-12-18T04:01:24;7.22;;;4.35;;
72037;SDS011;59900;50.788;12.904;2022-12-18T04:03:55;10.35;;;5.65;;
72037;SDS011;59900;50.788;12.904;2022-12-18T04:06:23;13.43;;;6.13;;
72037;SDS011;59900;50.788;12.904;2022-12-18T04:08:49;12.17;;;5.93;;
72037;SDS011;59900;50.788;12.904;2022-12-18T04:11:15;10.00;;;5.13;;
72037;SDS011;59900;50.788;12.904;2022-12-18T04:13:41;10.25;;;4.70;;
72037;SDS011;59900;50.788;12.904;2022-12-18T04:16:07;11.57;;;4.83;;
72037;SDS011;59900;50.788;12.904;2022-12-18T04:18:34;8.80;;;5.20;;
72037;SDS011;59900;50.788;12.904;2022-12-18T04:21:00;10.27;;;4.72;;
72037;SDS011;59900;50.788;12.904;2022-12-18T04:23:26;11.10;;;5.60;;
72037;SDS011;59900;50.788;12.904;2022-12-18T04:25:51;12.53;;;5.00;;
72037;SDS011;59900;50.788;12.904;2022-12-18T04:28:16;13.00;;;5.47;;
72037;SDS011;59900;50.788;12.904;2022-12-18T04:30:42;10.33;;;5.30;;
72037;SDS011;59900;50.788;12.904;2022-12-18T04:33:08;10.80;;;4.73;;
72037;SDS011;59900;50.788;12.904;2022-12-18T04:35:37;8.75;;;5.35;;
72037;SDS011;59900;50.788;12.904;2022-12-18T04:38:03;13.85;;;6.43;;
72037;SDS011;59900;50.788;12.904;2022-12-18T04:40:28;11.30;;;6.07;;
72037;SDS011;59900;50.788;12.904;2022-12-18T04:42:53;11.03;;;6.00;;
72037;SDS011;59900;50.788;12.904;2022-12-18T04:45:19;11.87;;;6.13;;
72037;SDS011;59900;50.788;12.904;2022-12-18T04:47:44;12.33;;;6.07;;
72037;SDS011;59900;50.788;12.904;2022-12-18T04:50:09;10.40;;;6.07;;
72037;SDS011;59900;50.788;12.904;2022-12-18T04:52:35;10.83;;;5.30;;
72037;SDS011;59900;50.788;12.904;2022-12-18T04:55:01;17.38;;;6.15;;
72037;SDS011;59900;50.788;12.904;2022-12-18T04:57:26;11.53;;;5.73;;
72037;SDS011;59900;50.788;12.904;2022-12-18T04:59:51;11.57;;;5.73;;
72037;SDS011;59900;50.788;12.904;2022-12-18T05:02:17;12.20;;;5.93;;
72037;SDS011;59900;50.788;12.904;2022-12-18T05:04:42;9.47;;;5.10;;
72037;SDS011;59900;50.788;12.904;2022-12-18T05:07:07;10.90;;;5.07;;
72037;SDS011;59900;50.788;12.904;2022-12-18T05:09:32;12.37;;;5.27;;
72037;SDS011;59900;50.788;12.904;2022-12-18T05:11:58;11.97;;;5.87;;
72037;SDS011;59900;50.788;12.904;2022-12-18T05:14:23;14.40;;;5.70;;
72037;SDS011;59900;50.788;12.904;2022-12-18T05:16:48;10.13;;;5.93;;
72037;SDS011;59900;50.788;12.904;2022-12-18T05:19:13;9.87;;;5.27;;
72037;SDS011;59900;50.788;12.904;2022-12-18T05:21:39;12.13;;;5.50;;
72037;SDS011;59900;50.788;12.904;2022-12-18T05:24:04;9.33;;;5.60;;
72037;SDS011;59900;50.788;12.904;2022-12-18T05:26:29;10.57;;;5.07;;
72037;SDS011;59900;50.788;12.904;2022-12-18T05:28:55;11.60;;;4.43;;
72037;SDS011;59900;50.788;12.904;2022-12-18T05:31:20;9.13;;;4.65;;
72037;SDS011;59900;50.788;12.904;2022-12-18T05:33:45;8.55;;;4.85;;
72037;SDS011;59900;50.788;12.904;2022-12-18T05:36:10;11.60;;;5.47;;
72037;SDS011;59900;50.788;12.904;2022-12-18T05:38:37;11.75;;;4.85;;
72037;SDS011;59900;50.788;12.904;2022-12-18T05:41:03;8.73;;;4.85;;
72037;SDS011;59900;50.788;12.904;2022-12-18T05:43:29;7.10;;;4.13;;
72037;SDS011;59900;50.788;12.904;2022-12-18T05:45:55;6.67;;;4.27;;
72037;SDS011;59900;50.788;12.904;2022-12-18T05:48:21;6.55;;;3.95;;
72037;SDS011;59900;50.788;12.904;2022-12-18T05:50:47;8.87;;;4.13;;
72037;SDS011;59900;50.788;12.904;2022-12-18T05:53:14;6.45;;;3.85;;
72037;SDS011;59900;50.788;12.904;2022-12-18T05:55:41;7.13;;;3.97;;
72037;SDS011;59900;50.788;12.904;2022-12-18T05:58:08;8.45;;;4.88;;
72037;SDS011;59900;50.788;12.904;2022-12-18T06:00:35;7.43;;;4.40;;
72037;SDS011;59900;50.788;12.904;2022-12-18T06:03:04;8.30;;;4.72;;
72037;SDS011;59900;50.788;12.904;2022-12-18T06:05:34;8.50;;;5.00;;
72037;SDS011;59900;50.788;12.904;2022-12-18T06:08:01;7.57;;;4.25;;
72037;SDS011;59900;50.788;12.904;2022-12-18T06:10:26;9.33;;;4.80;;
72037;SDS011;59900;50.788;12.904;2022-12-18T06:12:51;6.37;;;4.20;;
72037;SDS011;59900;50.788;12.904;2022-12-18T06:15:17;8.43;;;4.17;;
72037;SDS011;59900;50.788;12.904;2022-12-18T06:17:42;5.13;;;3.80;;
72037;SDS011;59900;50.788;12.904;2022-12-18T06:20:07;7.00;;;3.70;;
72037;SDS011;59900;50.788;12.904;2022-12-18T06:22:33;8.65;;;3.90;;
72037;SDS011;59900;50.788;12.904;2022-12-18T06:24:59;7.32;;;4.20;;
72037;SDS011;59900;50.788;12.904;2022-12-18T06:27:25;10.75;;;4.30;;
72037;SDS011;59900;50.788;12.904;2022-12-18T06:29:50;7.45;;;4.13;;
72037;SDS011;59900;50.788;12.904;2022-12-18T06:32:15;8.00;;;3.80;;
72037;SDS011;59900;50.788;12.904;2022-12-18T06:34:41;7.13;;;3.37;;
72037;SDS011;59900;50.788;12.904;2022-12-18T06:37:06;6.83;;;3.23;;
72037;SDS011;59900;50.788;12.904;2022-12-18T06:39:32;6.33;;;2.87;;
72037;SDS011;59900;50.788;12.904;2022-12-18T06:41:57;7.10;;;3.30;;
72037;SDS011;59900;50.788;12.904;2022-12-18T06:44:22;7.00;;;3.77;;
72037;SDS011;59900;50.788;12.904;2022-12-18T06:46:48;8.73;;;3.65;;
72037;SDS011;59900;50.788;12.904;2022-12-18T06:49:13;7.63;;;4.40;;
72037;SDS011;59900;50.788;12.904;2022-12-18T06:51:38;6.77;;;3.97;;
72037;SDS011;59900;50.788;12.904;2022-12-18T06:54:03;6.37;;;3.97;;
72037;SDS011;59900;50.788;12.904;2022-12-18T06:56:29;7.10;;;4.10;;
72037;SDS011;59900;50.788;12.904;2022-12-18T06:58:54;7.90;;;3.93;;
72037;SDS011;59900;50.788;12.904;2022-12-18T07:01:20;7.93;;;3.87;;
72037;SDS011;59900;50.788;12.904;2022-12-18T07:03:45;7.05;;;4.00;;
72037;SDS011;59900;50.788;12.904;2022-12-18T07:06:14;8.27;;;4.23;;
72037;SDS011;59900;50.788;12.904;2022-12-18T07:08:41;10.50;;;4.18;;
72037;SDS011;59900;50.788;12.904;2022-12-18T07:11:07;8.90;;;4.37;;
72037;SDS011;59900;50.788;12.904;2022-12-18T07:13:32;7.37;;;3.77;;
72037;SDS011;59900;50.788;12.904;2022-12-18T07:16:16;7.67;;;3.57;;
72037;SDS011;59900;50.788;12.904;2022-12-18T07:18:43;6.78;;;3.70;;
72037;SDS011;59900;50.788;12.904;2022-12-18T07:21:10;7.37;;;3.43;;
72037;SDS011;59900;50.788;12.904;2022-12-18T07:23:40;5.95;;;3.65;;
72037;SDS011;59900;50.788;12.904;2022-12-18T07:26:09;5.00;;;2.93;;
72037;SDS011;59900;50.788;12.904;2022-12-18T07:28:37;7.03;;;4.00;;
72037;SDS011;59900;50.788;12.904;2022-12-18T07:31:08;5.55;;;3.55;;
72037;SDS011;59900;50.788;12.904;2022-12-18T07:33:36;7.00;;;3.33;;
72037;SDS011;59900;50.788;12.904;2022-12-18T07:36:02;8.73;;;3.92;;
72037;SDS011;59900;50.788;12.904;2022-12-18T07:38:29;7.40;;;3.20;;
72037;SDS011;59900;50.788;12.904;2022-12-18T07:40:59;8.48;;;3.60;;
72037;SDS011;59900;50.788;12.904;2022-12-18T07:43:25;6.75;;;3.13;;
72037;SDS011;59900;50.788;12.904;2022-12-18T07:45:51;6.13;;;3.30;;
72037;SDS011;59900;50.788;12.904;2022-12-18T07:48:16;8.67;;;3.97;;
72037;SDS011;59900;50.788;12.904;2022-12-18T07:50:41;5.07;;;3.40;;
72037;SDS011;59900;50.788;12.904;2022-12-18T07:53:06;8.60;;;4.27;;
72037;SDS011;59900;50.788;12.904;2022-12-18T07:55:32;4.60;;;3.20;;
72037;SDS011;59900;50.788;12.904;2022-12-18T07:58:00;5.27;;;3.07;;
72037;SDS011;59900;50.788;12.904;2022-12-18T08:00:26;5.22;;;3.00;;
72037;SDS011;59900;50.788;12.904;2022-12-18T08:02:51;5.63;;;3.73;;
72037;SDS011;59900;50.788;12.904;2022-12-18T08:05:16;6.17;;;4.00;;
72037;SDS011;59900;50.788;12.904;2022-12-18T08:07:42;6.97;;;4.13;;
72037;SDS011;59900;50.788;12.904;2022-12-18T08:10:07;6.83;;;3.93;;
72037;SDS011;59900;50.788;12.904;2022-12-18T08:12:33;7.80;;;4.10;;
72037;SDS011;59900;50.788;12.904;2022-12-18T08:14:58;6.40;;;4.00;;
72037;SDS011;59900;50.788;12.904;2022-12-18T08:17:23;8.30;;;3.67;;
72037;SDS011;59900;50.788;12.904;2022-12-18T08:19:49;8.03;;;3.20;;
72037;SDS011;59900;50.788;12.904;2022-12-18T08:22:14;9.80;;;3.87;;
72037;SDS011;59900;50.788;12.904;2022-12-18T08:24:39;7.40;;;2.90;;
72037;SDS011;59900;50.788;12.904;2022-12-18T08:27:04;6.47;;;3.57;;
72037;SDS011;59900;50.788;12.904;2022-12-18T08:29:30;6.93;;;3.57;;
72037;SDS011;59900;50.788;12.904;2022-12-18T08:31:55;8.93;;;4.80;;
72037;SDS011;59900;50.788;12.904;2022-12-18T08:34:20;9.40;;;4.60;;
72037;SDS011;59900;50.788;12.904;2022-12-18T08:36:46;8.07;;;4.17;;
72037;SDS011;59900;50.788;12.904;2022-12-18T08:39:11;9.10;;;4.43;;
72037;SDS011;59900;50.788;12.904;2022-12-18T08:41:36;7.77;;;4.10;;
72037;SDS011;59900;50.788;12.904;2022-12-18T08:44:01;9.10;;;3.83;;
72037;SDS011;59900;50.788;12.904;2022-12-18T08:46:45;8.48;;;4.57;;
72037;SDS011;59900;50.788;12.904;2022-12-18T08:49:11;9.57;;;5.07;;
72037;SDS011;59900;50.788;12.904;2022-12-18T08:51:37;8.63;;;5.10;;
72037;SDS011;59900;50.788;12.904;2022-12-18T08:54:03;7.20;;;4.30;;
72037;SDS011;59900;50.788;12.904;2022-12-18T08:56:28;6.83;;;3.53;;
72037;SDS011;59900;50.788;12.904;2022-12-18T08:58:54;8.30;;;4.18;;
72037;SDS011;59900;50.788;12.904;2022-12-18T09:01:20;8.17;;;4.40;;
72037;SDS011;59900;50.788;12.904;2022-12-18T09:03:45;9.07;;;4.30;;
72037;SDS011;59900;50.788;12.904;2022-12-18T09:06:13;10.82;;;4.53;;
72037;SDS011;59900;50.788;12.904;2022-12-18T09:08:40;10.10;;;4.07;;
72037;SDS011;59900;50.788;12.904;2022-12-18T09:11:09;7.53;;;3.95;;
72037;SDS011;59900;50.788;12.904;2022-12-18T09:13:37;9.43;;;4.00;;
72037;SDS011;59900;50.788;12.904;2022-12-18T09:16:03;10.10;;;4.83;;
72037;SDS011;59900;50.788;12.904;2022-12-18T09:18:28;9.30;;;4.53;;
72037;SDS011;59900;50.788;12.904;2022-12-18T09:20:53;10.97;;;5.40;;
72037;SDS011;59900;50.788;12.904;2022-12-18T09:23:19;10.87;;;4.80;;
72037;SDS011;59900;50.788;12.904;2022-12-18T09:25:45;10.13;;;5.13;;
72037;SDS011;59900;50.788;12.904;2022-12-18T09:28:11;12.60;;;5.63;;
72037;SDS011;59900;50.788;12.904;2022-12-18T09:30:46;10.17;;;5.20;;
72037;SDS011;59900;50.788;12.904;2022-12-18T09:33:13;11.35;;;5.22;;
72037;SDS011;59900;50.788;12.904;2022-12-18T09:35:40;11.32;;;4.93;;
72037;SDS011;59900;50.788;12.904;2022-12-18T09:38:07;10.17;;;4.83;;
72037;SDS011;59900;50.788;12.904;2022-12-18T09:40:36;10.82;;;5.18;;
72037;SDS011;59900;50.788;12.904;2022-12-18T09:43:06;13.48;;;6.43;;
72037;SDS011;59900;50.788;12.904;2022-12-18T09:45:38;16.42;;;6.15;;
72037;SDS011;59900;50.788;12.904;2022-12-18T09:48:15;16.02;;;6.40;;
72037;SDS011;59900;50.788;12.904;2022-12-18T09:50:47;9.47;;;5.47;;
72037;SDS011;59900;50.788;12.904;2022-12-18T09:53:15;11.25;;;5.55;;
72037;SDS011;59900;50.788;12.904;2022-12-18T09:55:46;9.57;;;5.03;;
72037;SDS011;59900;50.788;12.904;2022-12-18T09:58:33;10.80;;;5.20;;
72037;SDS011;59900;50.788;12.904;2022-12-18T10:01:10;9.98;;;5.40;;
72037;SDS011;59900;50.788;12.904;2022-12-18T10:03:36;13.63;;;5.67;;
72037;SDS011;59900;50.788;12.904;2022-12-18T10:08:41;11.73;;;5.70;;
72037;SDS011;59900;50.788;12.904;2022-12-18T10:14:13;12.73;;;5.55;;
72037;SDS011;59900;50.788;12.904;2022-12-18T10:22:29;12.20;;;4.93;;
72037;SDS011;59900;50.788;12.904;2022-12-18T10:27:51;11.05;;;5.72;;
72037;SDS011;59900;50.788;12.904;2022-12-18T10:30:21;20.83;;;9.50;;
72037;SDS011;59900;50.788;12.904;2022-12-18T10:32:49;15.65;;;7.25;;
72037;SDS011;59900;50.788;12.904;2022-12-18T10:38:07;11.33;;;4.80;;
72037;SDS011;59900;50.788;12.904;2022-12-18T10:40:53;10.75;;;4.57;;
72037;SDS011;59900;50.788;12.904;2022-12-18T10:43:41;11.10;;;5.40;;
72037;SDS011;59900;50.788;12.904;2022-12-18T10:48:33;10.30;;;4.90;;
72037;SDS011;59900;50.788;12.904;2022-12-18T10:51:00;9.68;;;4.68;;
72037;SDS011;59900;50.788;12.904;2022-12-18T10:53:28;10.25;;;4.82;;
72037;SDS011;59900;50.788;12.904;2022-12-18T10:55:57;10.30;;;5.20;;
72037;SDS011;59900;50.788;12.904;2022-12-18T10:58:34;13.30;;;5.47;;
72037;SDS011;59900;50.788;12.904;2022-12-18T11:01:15;12.80;;;4.97;;
72037;SDS011;59900;50.788;12.904;2022-12-18T11:06:12;10.27;;;5.45;;
72037;SDS011;59900;50.788;12.904;2022-12-18T11:08:39;10.70;;;5.28;;
72037;SDS011;59900;50.788;12.904;2022-12-18T11:11:07;12.77;;;4.83;;
72037;SDS011;59900;50.788;12.904;2022-12-18T11:13:48;13.20;;;5.45;;
72037;SDS011;59900;50.788;12.904;2022-12-18T11:16:36;8.65;;;4.45;;
72037;SDS011;59900;50.788;12.904;2022-12-18T11:19:54;10.85;;;5.60;;
72037;SDS011;59900;50.788;12.904;2022-12-18T11:25:07;15.63;;;6.13;;
72037;SDS011;59900;50.788;12.904;2022-12-18T11:27:47;12.50;;;5.90;;
72037;SDS011;59900;50.788;12.904;2022-12-18T11:30:30;11.95;;;5.38;;
72037;SDS011;59900;50.788;12.904;2022-12-18T11:32:58;13.18;;;4.93;;
72037;SDS011;59900;50.788;12.904;2022-12-18T11:35:34;9.45;;;4.65;;
72037;SDS011;59900;50.788;12.904;2022-12-18T11:38:21;9.17;;;4.10;;
72037;SDS011;59900;50.788;12.904;2022-12-18T11:41:15;10.15;;;4.70;;
72037;SDS011;59900;50.788;12.904;2022-12-18T11:44:11;10.00;;;4.35;;
72037;SDS011;59900;50.788;12.904;2022-12-18T11:46:46;9.90;;;4.20;;
72037;SDS011;59900;50.788;12.904;2022-12-18T11:49:25;10.82;;;4.65;;
72037;SDS011;59900;50.788;12.904;2022-12-18T11:51:55;10.60;;;4.83;;
72037;SDS011;59900;50.788;12.904;2022-12-18T11:54:42;12.40;;;5.47;;
72037;SDS011;59900;50.788;12.904;2022-12-18T11:59:54;10.48;;;4.80;;
72037;SDS011;59900;50.788;12.904;2022-12-18T12:02:30;11.38;;;4.30;;
72037;SDS011;59900;50.788;12.904;2022-12-18T12:05:04;11.32;;;4.43;;
72037;SDS011;59900;50.788;12.904;2022-12-18T12:11:21;10.35;;;4.45;;
72037;SDS011;59900;50.788;12.904;2022-12-18T12:13:29;10.88;;;5.10;;
72037;SDS011;59900;50.788;12.904;2022-12-18T12:16:02;11.30;;;4.43;;
72037;SDS011;59900;50.788;12.904;2022-12-18T12:18:40;14.00;;;5.85;;
72037;SDS011;59900;50.788;12.904;2022-12-18T12:21:17;14.73;;;6.17;;
72037;SDS011;59900;50.788;12.904;2022-12-18T12:23:53;8.98;;;3.53;;
72037;SDS011;59900;50.788;12.904;2022-12-18T12:32:14;8.35;;;3.95;;
72037;SDS011;59900;50.788;12.904;2022-12-18T12:38:10;9.70;;;3.75;;
72037;SDS011;59900;50.788;12.904;2022-12-18T12:40:44;9.93;;;4.00;;
72037;SDS011;59900;50.788;12.904;2022-12-18T12:45:53;9.75;;;3.83;;
72037;SDS011;59900;50.788;12.904;2022-12-18T12:48:40;8.40;;;3.57;;
72037;SDS011;59900;50.788;12.904;2022-12-18T12:53:46;9.98;;;4.35;;
72037;SDS011;59900;50.788;12.904;2022-12-18T12:56:13;9.80;;;4.20;;
72037;SDS011;59900;50.788;12.904;2022-12-18T12:58:48;9.10;;;3.65;;
72037;SDS011;59900;50.788;12.904;2022-12-18T13:01:26;7.53;;;3.73;;
72037;SDS011;59900;50.788;12.904;2022-12-18T13:04:12;14.02;;;4.72;;
72037;SDS011;59900;50.788;12.904;2022-12-18T13:07:00;11.48;;;4.45;;
72037;SDS011;59900;50.788;12.904;2022-12-18T13:09:31;10.10;;;4.10;;
72037;SDS011;59900;50.788;12.904;2022-12-18T13:12:01;8.00;;;3.95;;
72037;SDS011;59900;50.788;12.904;2022-12-18T13:14:48;10.60;;;3.83;;
72037;SDS011;59900;50.788;12.904;2022-12-18T13:20:09;9.20;;;3.67;;
72037;SDS011;59900;50.788;12.904;2022-12-18T13:22:38;10.77;;;4.50;;
72037;SDS011;59900;50.788;12.904;2022-12-18T13:35:38;10.50;;;4.38;;
72037;SDS011;59900;50.788;12.904;2022-12-18T13:38:34;11.00;;;4.30;;
72037;SDS011;59900;50.788;12.904;2022-12-18T13:43:49;9.63;;;4.65;;
72037;SDS011;59900;50.788;12.904;2022-12-18T13:49:17;9.90;;;4.57;;
72037;SDS011;59900;50.788;12.904;2022-12-18T13:51:51;13.45;;;4.72;;
72037;SDS011;59900;50.788;12.904;2022-12-18T13:54:35;7.70;;;3.63;;
72037;SDS011;59900;50.788;12.904;2022-12-18T13:57:04;8.93;;;3.90;;
72037;SDS011;59900;50.788;12.904;2022-12-18T13:59:35;10.37;;;4.30;;
72037;SDS011;59900;50.788;12.904;2022-12-18T14:02:14;9.45;;;3.83;;
72037;SDS011;59900;50.788;12.904;2022-12-18T14:04:44;9.55;;;4.20;;
72037;SDS011;59900;50.788;12.904;2022-12-18T14:07:12;9.57;;;4.20;;
72037;SDS011;59900;50.788;12.904;2022-12-18T14:09:41;8.27;;;3.95;;
72037;SDS011;59900;50.788;12.904;2022-12-18T14:12:14;9.07;;;3.70;;
72037;SDS011;59900;50.788;12.904;2022-12-18T14:15:00;9.98;;;4.03;;
72037;SDS011;59900;50.788;12.904;2022-12-18T14:17:29;11.18;;;3.80;;
72037;SDS011;59900;50.788;12.904;2022-12-18T14:19:58;8.55;;;4.07;;
72037;SDS011;59900;50.788;12.904;2022-12-18T14:22:25;9.80;;;4.13;;
72037;SDS011;59900;50.788;12.904;2022-12-18T14:27:42;8.43;;;3.88;;
72037;SDS011;59900;50.788;12.904;2022-12-18T14:33:01;10.07;;;3.95;;
72037;SDS011;59900;50.788;12.904;2022-12-18T14:35:33;8.43;;;4.28;;
72037;SDS011;59900;50.788;12.904;2022-12-18T14:38:10;13.80;;;6.03;;
72037;SDS011;59900;50.788;12.904;2022-12-18T14:40:56;9.15;;;4.07;;
72037;SDS011;59900;50.788;12.904;2022-12-18T14:43:27;11.10;;;4.30;;
72037;SDS011;59900;50.788;12.904;2022-12-18T14:45:53;11.60;;;4.70;;
72037;SDS011;59900;50.788;12.904;2022-12-18T14:48:38;9.50;;;3.93;;
72037;SDS011;59900;50.788;12.904;2022-12-18T14:53:41;9.77;;;4.68;;
72037;SDS011;59900;50.788;12.904;2022-12-18T14:56:30;9.48;;;4.07;;
72037;SDS011;59900;50.788;12.904;2022-12-18T14:59:05;11.15;;;4.50;;
72037;SDS011;59900;50.788;12.904;2022-12-18T15:07:12;9.27;;;4.30;;
72037;SDS011;59900;50.788;12.904;2022-12-18T15:18:03;9.77;;;3.87;;
72037;SDS011;59900;50.788;12.904;2022-12-18T15:23:22;10.23;;;4.70;;
72037;SDS011;59900;50.788;12.904;2022-12-18T15:28:36;10.77;;;4.80;;
72037;SDS011;59900;50.788;12.904;2022-12-18T15:31:23;11.20;;;4.70;;
72037;SDS011;59900;50.788;12.904;2022-12-18T15:34:10;11.57;;;5.32;;
72037;SDS011;59900;50.788;12.904;2022-12-18T15:36:38;11.27;;;4.93;;
72037;SDS011;59900;50.788;12.904;2022-12-18T15:39:04;10.77;;;4.93;;
72037;SDS011;59900;50.788;12.904;2022-12-18T15:41:30;10.80;;;4.70;;
72037;SDS011;59900;50.788;12.904;2022-12-18T15:44:00;9.48;;;4.88;;
72037;SDS011;59900;50.788;12.904;2022-12-18T15:46:25;11.50;;;4.83;;
72037;SDS011;59900;50.788;12.904;2022-12-18T15:48:55;14.02;;;5.72;;
72037;SDS011;59900;50.788;12.904;2022-12-18T15:51:28;12.25;;;5.00;;
72037;SDS011;59900;50.788;12.904;2022-12-18T15:53:58;14.48;;;5.72;;
72037;SDS011;59900;50.788;12.904;2022-12-18T15:56:25;13.63;;;5.40;;
72037;SDS011;59900;50.788;12.904;2022-12-18T15:59:12;10.07;;;5.30;;
72037;SDS011;59900;50.788;12.904;2022-12-18T16:01:43;13.75;;;5.60;;
72037;SDS011;59900;50.788;12.904;2022-12-18T16:04:11;12.10;;;5.10;;
72037;SDS011;59900;50.788;12.904;2022-12-18T16:06:37;12.50;;;5.43;;
72037;SDS011;59900;50.788;12.904;2022-12-18T16:09:03;11.87;;;5.70;;
72037;SDS011;59900;50.788;12.904;2022-12-18T16:11:29;10.40;;;4.87;;
72037;SDS011;59900;50.788;12.904;2022-12-18T16:14:20;12.07;;;4.70;;
72037;SDS011;59900;50.788;12.904;2022-12-18T16:16:48;11.27;;;4.40;;
72037;SDS011;59900;50.788;12.904;2022-12-18T16:19:15;10.68;;;4.82;;
72037;SDS011;59900;50.788;12.904;2022-12-18T16:21:41;12.00;;;4.50;;
72037;SDS011;59900;50.788;12.904;2022-12-18T16:24:09;11.53;;;4.90;;
72037;SDS011;59900;50.788;12.904;2022-12-18T16:26:40;11.13;;;4.35;;
72037;SDS011;59900;50.788;12.904;2022-12-18T16:29:06;9.93;;;4.40;;
72037;SDS011;59900;50.788;12.904;2022-12-18T16:31:35;10.40;;;5.73;;